Monrovia, Indiana
Current Conditions -  °F | °C
As of 12:54 PM on Friday 28 Nov 2014 (Local Time) from KIND Reporting Station
Broken Clouds Broken Clouds  
Wind Chill: 21°   Ceiling: 12000
Heat Index: 29°   Visibility: 10mi
Dew Point: 15°   Wind: 8mph
Humidity: 56%   Direction: 150°SSE
Pressure: 30.23"   Gusts: NA
Location:  39.58°N, 86.48°W
Report Text: KIND 281754Z 15007KT 10SM FEW075 BKN120 M02/M09 A3023 RMK AO2 SLP245 T10171094 11011 21061 58035
Loading
Personal Weather Stations






























Interactive Weather Map New forecast layout! Learn more

10-Day Weather Forecast

Advertisements
Track Severe Weather on mobile